Time;durP1;ratioP1;P1;durP2;ratioP2;P2;SDS_P1;SDS_P2;PMS_P1;PMS_P2;Temp;Humidity;BMP_temperature;BMP_pressure;BME280_temperature;BME280_humidity;BME280_pressure;Samples;Min_cycle;Max_cycle;Signal;HPM_P1;HPM_P2
2022/03/05 00:00:17;;;;;;;16.13;9.20;;;-0.40;99.90;;;;;;6100967;23;20353;-82
2022/03/05 00:02:43;;;;;;;19.42;9.27;;;-1.10;99.90;;;;;;6126008;23;20018;-81
2022/03/05 00:05:10;;;;;;;16.55;9.02;;;-0.30;99.90;;;;;;6101510;23;20021;-81
2022/03/05 00:07:36;;;;;;;16.63;9.23;;;-1.10;99.90;;;;;;6101493;23;20018;-81
2022/03/05 00:10:03;;;;;;;17.80;9.98;;;-1.20;99.90;;;;;;6101430;23;20022;-81
2022/03/05 00:12:29;;;;;;;18.38;9.65;;;-1.20;99.90;;;;;;6101173;23;20053;-81
2022/03/05 00:14:55;;;;;;;16.63;9.48;;;-1.20;99.90;;;;;;6101580;23;20104;-81
2022/03/05 00:17:21;;;;;;;17.38;8.95;;;-1.20;99.90;;;;;;6126077;23;20017;-81
2022/03/05 00:19:47;;;;;;;18.27;8.60;;;-1.20;99.90;;;;;;6077274;23;20052;-81
2022/03/05 00:22:12;;;;;;;19.20;9.63;;;-1.20;99.90;;;;;;6150160;23;20025;-81
2022/03/05 00:24:38;;;;;;;21.85;9.55;;;-1.30;99.90;;;;;;6150148;23;20088;-82
2022/03/05 00:27:04;;;;;;;19.55;9.18;;;-1.30;99.90;;;;;;6101262;23;20017;-81
2022/03/05 00:29:30;;;;;;;21.38;8.82;;;-1.30;99.90;;;;;;6101169;23;20543;-81
2022/03/05 00:31:56;;;;;;;20.42;9.63;;;-1.40;99.90;;;;;;6149923;23;20025;-81
2022/03/05 00:34:22;;;;;;;17.88;10.00;;;-1.40;99.90;;;;;;6100807;23;20022;-81
2022/03/05 00:36:48;;;;;;;15.90;8.88;;;-1.50;99.90;;;;;;6100914;23;20021;-81
2022/03/05 00:39:14;;;;;;;16.98;9.10;;;-1.50;99.90;;;;;;6101205;23;20119;-81
2022/03/05 00:41:40;;;;;;;23.23;10.70;;;-1.50;99.90;;;;;;6100958;23;20465;-81
2022/03/05 00:44:05;;;;;;;16.75;8.70;;;-1.50;99.90;;;;;;6101070;23;20048;-81
2022/03/05 00:46:31;;;;;;;16.23;8.98;;;-1.60;99.90;;;;;;6100804;23;20020;-81
2022/03/05 00:48:57;;;;;;;18.80;10.00;;;-1.60;99.90;;;;;;6101202;23;20017;-81
2022/03/05 00:51:22;;;;;;;19.38;9.25;;;-1.60;99.90;;;;;;6100835;23;20024;-81
2022/03/05 00:53:48;;;;;;;14.98;9.02;;;-1.60;99.90;;;;;;6150112;23;20059;-81
2022/03/05 00:56:14;;;;;;;15.82;8.57;;;-1.70;99.90;;;;;;6149330;23;20565;-81
2022/03/05 00:58:39;;;;;;;17.77;9.27;;;-1.70;99.90;;;;;;6125574;23;20018;-82
2022/03/05 01:01:05;;;;;;;15.88;8.20;;;-1.70;99.90;;;;;;6100640;23;20020;-81
2022/03/05 01:03:31;;;;;;;15.70;8.05;;;-1.70;99.90;;;;;;6150131;23;20104;-82
2022/03/05 01:05:57;;;;;;;19.20;8.30;;;-1.80;99.90;;;;;;6149580;23;20024;-82
2022/03/05 01:08:23;;;;;;;17.08;8.32;;;-1.80;99.90;;;;;;6100685;23;20014;-81
2022/03/05 01:10:49;;;;;;;19.73;9.57;;;-1.80;99.90;;;;;;6149886;23;20449;-81
2022/03/05 01:13:14;;;;;;;17.55;9.40;;;-1.80;99.90;;;;;;6100866;23;20025;-82
2022/03/05 01:15:40;;;;;;;17.40;9.70;;;-1.80;99.90;;;;;;6101136;23;20096;-81
2022/03/05 01:18:06;;;;;;;18.42;8.88;;;-1.80;99.90;;;;;;6150130;23;20025;-81
2022/03/05 01:20:31;;;;;;;20.35;9.88;;;-1.90;99.90;;;;;;6100950;23;20409;-80
2022/03/05 01:22:57;;;;;;;14.98;7.85;;;-1.90;99.90;;;;;;6101285;23;20057;-81
2022/03/05 01:25:23;;;;;;;16.63;8.27;;;-1.90;99.90;;;;;;6149909;23;20448;-81
2022/03/05 01:27:48;;;;;;;17.67;9.15;;;-1.90;99.90;;;;;;6101021;23;20060;-81
2022/03/05 01:30:14;;;;;;;14.40;8.43;;;-1.90;99.90;;;;;;6101017;23;20080;-81
2022/03/05 01:32:40;;;;;;;14.73;8.52;;;-2.00;99.90;;;;;;6101376;23;20058;-81
2022/03/05 01:35:06;;;;;;;15.10;8.02;;;-2.00;99.90;;;;;;6149872;23;20108;-81
2022/03/05 01:37:32;;;;;;;18.27;8.45;;;-2.00;99.90;;;;;;6077276;23;20117;-81
2022/03/05 01:39:58;;;;;;;17.88;8.90;;;-2.10;99.90;;;;;;6100389;23;20468;-81
2022/03/05 01:42:24;;;;;;;17.95;8.48;;;-2.10;99.90;;;;;;6150048;23;20013;-81
2022/03/05 01:44:50;;;;;;;17.98;8.48;;;-2.20;99.90;;;;;;6101271;23;20017;-81
2022/03/05 01:47:16;;;;;;;14.98;8.32;;;-2.20;99.90;;;;;;6149782;23;20689;-81
2022/03/05 01:49:43;;;;;;;15.57;8.02;;;-2.20;99.90;;;;;;6100618;23;20021;-81
2022/03/05 01:52:09;;;;;;;12.88;7.32;;;-2.30;99.90;;;;;;6149958;23;20019;-81
2022/03/05 01:54:35;;;;;;;13.50;7.30;;;-2.30;99.90;;;;;;6100497;23;20040;-81
2022/03/05 01:57:02;;;;;;;13.57;7.57;;;-2.40;99.90;;;;;;6149704;23;20040;-81
2022/03/05 01:59:28;;;;;;;15.65;7.95;;;-2.40;99.90;;;;;;6100897;23;20025;-80
2022/03/05 02:01:54;;;;;;;13.68;7.45;;;-2.40;99.90;;;;;;6100760;23;20047;-80
2022/03/05 02:04:19;;;;;;;15.25;7.60;;;-2.40;99.90;;;;;;6100781;23;20014;-81
2022/03/05 02:06:45;;;;;;;16.52;7.80;;;-2.20;99.90;;;;;;6100438;23;20318;-81
2022/03/05 02:09:11;;;;;;;16.27;8.30;;;-2.50;99.90;;;;;;6100956;23;20021;-81
2022/03/05 02:11:37;;;;;;;14.07;7.93;;;-2.50;99.90;;;;;;6149698;23;20089;-81
2022/03/05 02:14:03;;;;;;;12.82;7.38;;;-2.50;99.90;;;;;;6101546;23;20100;-81
2022/03/05 02:16:29;;;;;;;12.77;7.47;;;-2.50;99.90;;;;;;6102410;23;20014;-81
2022/03/05 02:18:55;;;;;;;15.57;7.25;;;-2.60;99.90;;;;;;6151580;23;20017;-81
2022/03/05 02:21:23;;;;;;;14.48;7.70;;;-2.60;99.90;;;;;;6102166;23;20061;-81
2022/03/05 02:23:49;;;;;;;13.40;7.10;;;-2.60;99.90;;;;;;6151395;23;20013;-81
2022/03/05 02:26:15;;;;;;;14.82;7.25;;;-2.60;99.90;;;;;;6151232;23;20021;-81
2022/03/05 02:28:41;;;;;;;13.70;6.82;;;-2.60;99.90;;;;;;6151251;23;20028;-81
2022/03/05 02:31:07;;;;;;;15.38;6.93;;;-2.60;99.90;;;;;;6150545;23;20032;-81
2022/03/05 02:33:34;;;;;;;17.05;7.30;;;-2.70;99.90;;;;;;6126515;23;20017;-81
2022/03/05 02:36:00;;;;;;;12.32;7.20;;;-2.70;99.90;;;;;;6150717;23;20025;-81
2022/03/05 02:38:25;;;;;;;12.20;6.72;;;-2.70;99.90;;;;;;6126857;23;20014;-80
2022/03/05 02:40:52;;;;;;;14.88;7.20;;;-2.80;99.90;;;;;;6151138;23;20832;-80
2022/03/05 02:43:21;;;;;;;15.95;7.10;;;-2.80;99.90;;;;;;6102417;23;20020;-80
2022/03/05 02:45:47;;;;;;;13.07;7.25;;;-2.80;99.90;;;;;;6101780;23;20357;-80
2022/03/05 02:48:15;;;;;;;16.35;7.30;;;-2.80;99.90;;;;;;6151683;23;20025;-80
2022/03/05 02:50:42;;;;;;;14.38;7.82;;;-2.90;99.90;;;;;;6101262;23;20025;-80
2022/03/05 02:53:08;;;;;;;13.02;6.70;;;-2.80;99.90;;;;;;6100221;23;20035;-80
2022/03/05 02:55:34;;;;;;;16.38;8.15;;;-2.80;99.90;;;;;;6147369;23;20381;-80
2022/03/05 02:58:01;;;;;;;13.98;6.57;;;-2.80;99.90;;;;;;6099929;23;20021;-80
2022/03/05 03:00:26;;;;;;;13.98;7.85;;;-2.80;99.90;;;;;;6099789;23;20024;-80
2022/03/05 03:02:52;;;;;;;14.05;8.07;;;-2.60;99.90;;;;;;6126492;23;20018;-80
2022/03/05 03:05:18;;;;;;;15.20;7.18;;;-2.80;99.90;;;;;;6102048;23;20014;-80
2022/03/05 03:07:44;;;;;;;11.45;6.13;;;-2.80;99.90;;;;;;6102167;23;20017;-80
2022/03/05 03:10:11;;;;;;;10.80;6.53;;;-2.80;99.90;;;;;;6150982;23;20021;-80
2022/03/05 03:12:38;;;;;;;12.68;6.50;;;-2.90;99.90;;;;;;6101982;23;20080;-80
2022/03/05 03:15:06;;;;;;;16.35;8.32;;;-2.90;99.90;;;;;;6102394;23;20017;-80
2022/03/05 03:17:46;;;;;;;14.63;8.32;;;-2.90;99.90;;;;;;6102179;23;20028;-80
2022/03/05 03:20:14;;;;;;;13.82;7.53;;;-2.90;99.90;;;;;;6127004;23;20361;-80
2022/03/05 03:22:40;;;;;;;17.55;8.38;;;-3.00;99.90;;;;;;6150577;23;20014;-80
2022/03/05 03:25:07;;;;;;;12.40;6.80;;;-3.00;99.90;;;;;;6150508;23;20088;-80
2022/03/05 03:27:32;;;;;;;14.27;7.85;;;-3.00;99.90;;;;;;6101547;23;20006;-80
2022/03/05 03:29:58;;;;;;;12.93;7.53;;;-3.00;99.90;;;;;;6102036;23;20400;-80
2022/03/05 03:32:24;;;;;;;13.52;7.53;;;-3.00;99.90;;;;;;6150930;23;20540;-80
2022/03/05 03:34:50;;;;;;;14.95;7.80;;;-3.00;99.90;;;;;;6101825;23;20053;-80
2022/03/05 03:37:16;;;;;;;17.20;8.18;;;-3.00;99.90;;;;;;6101664;23;20496;-80
2022/03/05 03:39:41;;;;;;;13.27;7.32;;;-3.00;99.90;;;;;;6101878;23;20123;-80
2022/03/05 03:42:07;;;;;;;19.25;7.45;;;-3.10;99.90;;;;;;6150644;23;20548;-80
2022/03/05 03:44:33;;;;;;;15.32;8.35;;;-3.10;99.90;;;;;;6101690;23;20013;-80
2022/03/05 03:46:59;;;;;;;14.35;7.40;;;-3.20;99.90;;;;;;6125879;23;20017;-81
2022/03/05 03:49:24;;;;;;;16.33;7.97;;;-3.20;99.90;;;;;;6101816;23;20027;-80
2022/03/05 03:51:50;;;;;;;14.13;7.47;;;-3.20;99.90;;;;;;6101510;23;20028;-80
2022/03/05 03:54:16;;;;;;;17.00;7.47;;;-3.20;99.90;;;;;;6101753;23;20032;-80
2022/03/05 03:56:42;;;;;;;14.23;7.90;;;-3.20;99.90;;;;;;6150422;23;20021;-80
2022/03/05 03:59:08;;;;;;;13.73;7.07;;;-3.20;99.90;;;;;;6101577;23;20017;-80
2022/03/05 04:01:34;;;;;;;12.73;6.47;;;-3.20;99.90;;;;;;6101350;23;20018;-79
2022/03/05 04:03:59;;;;;;;14.57;7.82;;;-3.20;99.90;;;;;;6101470;23;20017;-80
2022/03/05 04:06:25;;;;;;;17.50;8.30;;;-3.20;99.90;;;;;;6101126;23;20346;-80
2022/03/05 04:08:51;;;;;;;16.30;8.32;;;-2.60;99.90;;;;;;6125950;23;20401;-80
2022/03/05 04:11:19;;;;;;;15.43;7.65;;;-3.20;99.90;;;;;;6125844;23;20025;-80
2022/03/05 04:13:47;;;;;;;14.77;8.18;;;-3.20;99.90;;;;;;6125679;23;20060;-80
2022/03/05 04:16:13;;;;;;;14.63;7.97;;;-3.20;99.90;;;;;;6101440;23;20064;-80
2022/03/05 04:18:39;;;;;;;17.48;8.25;;;-3.20;99.90;;;;;;6101402;23;20100;-80
2022/03/05 04:21:07;;;;;;;17.98;7.72;;;-3.20;99.90;;;;;;6125401;23;20029;-80
2022/03/05 04:23:33;;;;;;;16.52;7.90;;;-3.20;99.90;;;;;;6150428;23;20112;-80
2022/03/05 04:26:00;;;;;;;11.63;6.90;;;-3.20;99.90;;;;;;6101367;23;20504;-80
2022/03/05 04:28:26;;;;;;;14.98;7.72;;;-3.20;99.90;;;;;;6101156;23;20080;-80
2022/03/05 04:30:52;;;;;;;14.32;7.93;;;-3.30;99.90;;;;;;6101554;23;20025;-80
2022/03/05 04:33:18;;;;;;;15.23;7.45;;;-3.00;99.90;;;;;;6150572;23;20105;-80
2022/03/05 04:35:44;;;;;;;14.18;7.25;;;-3.40;99.90;;;;;;6101089;23;20056;-80
2022/03/05 04:38:10;;;;;;;16.88;7.47;;;-3.40;99.90;;;;;;6100520;23;20021;-80
2022/03/05 04:40:36;;;;;;;14.07;7.03;;;-3.40;99.90;;;;;;6100883;23;20021;-80
2022/03/05 04:43:02;;;;;;;14.75;7.53;;;-3.40;99.90;;;;;;6100952;23;20018;-82
2022/03/05 04:45:29;;;;;;;17.08;7.22;;;-3.40;99.90;;;;;;6101027;23;20024;-81
2022/03/05 04:47:55;;;;;;;13.40;6.70;;;-3.40;99.90;;;;;;6125450;23;20017;-80
2022/03/05 04:50:21;;;;;;;12.43;6.68;;;-3.40;99.90;;;;;;6101360;23;20021;-80
2022/03/05 04:52:47;;;;;;;17.77;8.77;;;-3.50;99.90;;;;;;6149937;23;20028;-80
2022/03/05 04:55:13;;;;;;;15.73;7.57;;;-3.40;99.90;;;;;;6101115;23;20522;-80
2022/03/05 04:57:39;;;;;;;16.58;8.35;;;-3.40;99.90;;;;;;6100875;23;20032;-79
2022/03/05 05:00:07;;;;;;;15.95;7.55;;;-3.40;99.90;;;;;;6100621;23;20025;-80
2022/03/05 05:02:33;;;;;;;17.80;7.80;;;-3.40;99.90;;;;;;6101294;23;20013;-80
2022/03/05 05:04:59;;;;;;;13.88;7.70;;;-3.40;99.90;;;;;;6125580;23;20075;-80
2022/03/05 05:07:24;;;;;;;18.48;8.38;;;-3.40;99.90;;;;;;6100679;23;20458;-80
2022/03/05 05:09:50;;;;;;;17.92;8.02;;;-3.40;99.90;;;;;;6123689;23;20013;-80
2022/03/05 05:12:16;;;;;;;17.23;8.57;;;-3.40;99.90;;;;;;6099354;23;20021;-80
2022/03/05 05:14:41;;;;;;;16.90;7.63;;;-3.40;99.90;;;;;;6124398;23;20013;-80
2022/03/05 05:17:07;;;;;;;18.27;9.18;;;-3.40;99.90;;;;;;6100926;23;20017;-80
2022/03/05 05:19:33;;;;;;;19.05;7.70;;;-3.70;99.90;;;;;;6149088;23;20096;-80
2022/03/05 05:22:01;;;;;;;18.55;8.43;;;-3.40;99.90;;;;;;6100499;23;20060;-80
2022/03/05 05:24:30;;;;;;;14.32;8.38;;;-3.40;99.90;;;;;;6101369;23;20088;-80
2022/03/05 05:26:57;;;;;;;17.67;8.98;;;-3.50;99.90;;;;;;6101300;23;20330;-80
2022/03/05 05:29:23;;;;;;;21.60;7.70;;;-3.50;99.90;;;;;;6102188;23;20461;-78
2022/03/05 05:31:50;;;;;;;17.35;7.72;;;-3.50;99.90;;;;;;6152443;23;20024;-79
2022/03/05 05:34:16;;;;;;;15.02;8.05;;;-3.60;99.90;;;;;;6128304;23;20021;-79
2022/03/05 05:36:42;;;;;;;15.25;7.40;;;-3.60;99.90;;;;;;6102514;23;20101;-79
2022/03/05 05:39:10;;;;;;;19.92;7.78;;;-3.60;99.90;;;;;;6125089;23;20461;-79
2022/03/05 05:41:37;;;;;;;16.92;8.05;;;-3.60;99.90;;;;;;6101079;23;20025;-79
2022/03/05 05:44:04;;;;;;;15.05;7.68;;;-3.60;99.90;;;;;;6100758;23;20017;-79
2022/03/05 05:46:31;;;;;;;18.45;8.40;;;-3.60;99.90;;;;;;6125601;23;20044;-79
2022/03/05 05:48:57;;;;;;;16.00;7.85;;;-3.60;99.90;;;;;;6149179;23;20026;-80
2022/03/05 05:51:24;;;;;;;17.50;7.82;;;-3.70;99.90;;;;;;6100381;23;20098;-80
2022/03/05 05:53:50;;;;;;;14.25;7.35;;;-3.70;99.90;;;;;;6100630;23;20022;-80
2022/03/05 05:56:15;;;;;;;17.23;8.18;;;-3.70;99.90;;;;;;6124550;23;20021;-79
2022/03/05 05:58:41;;;;;;;16.83;8.40;;;-3.70;99.90;;;;;;6100453;23;20353;-80
2022/03/05 06:01:07;;;;;;;16.33;7.55;;;-3.60;99.90;;;;;;6100089;23;20049;-80
2022/03/05 06:03:33;;;;;;;14.05;7.43;;;-3.00;99.90;;;;;;6100412;23;20022;-80
2022/03/05 06:05:59;;;;;;;15.43;7.90;;;-3.60;99.90;;;;;;6124317;23;20093;-80
2022/03/05 06:08:25;;;;;;;17.08;8.38;;;-3.60;99.90;;;;;;6124287;23;20374;-80
2022/03/05 06:10:51;;;;;;;20.48;8.30;;;-3.60;99.90;;;;;;6124541;23;20021;-80
2022/03/05 06:13:18;;;;;;;14.70;7.70;;;-3.60;99.90;;;;;;6100364;23;20076;-80
2022/03/05 06:15:44;;;;;;;13.40;7.32;;;-3.60;99.90;;;;;;6148834;23;20028;-80
2022/03/05 06:18:10;;;;;;;17.50;7.25;;;-3.60;99.90;;;;;;6149204;23;20024;-80
2022/03/05 06:20:36;;;;;;;16.73;7.38;;;-3.60;99.90;;;;;;6099735;23;20096;-80
2022/03/05 06:23:03;;;;;;;16.05;7.20;;;-3.60;99.90;;;;;;6125134;23;20013;-80
2022/03/05 06:25:29;;;;;;;15.88;7.60;;;-3.60;99.90;;;;;;6101314;23;20018;-80
2022/03/05 06:27:54;;;;;;;16.60;8.07;;;-3.50;99.90;;;;;;6125572;23;20024;-80
2022/03/05 06:30:20;;;;;;;17.17;8.23;;;-3.50;99.90;;;;;;6077133;23;20024;-80
2022/03/05 06:32:46;;;;;;;14.20;7.40;;;-3.50;99.90;;;;;;6150814;23;20177;-80
2022/03/05 06:35:11;;;;;;;14.18;7.65;;;-3.50;99.90;;;;;;6100949;23;20029;-80
2022/03/05 06:37:37;;;;;;;17.20;8.05;;;-3.00;99.90;;;;;;6101724;23;20401;-80
2022/03/05 06:40:04;;;;;;;13.65;7.95;;;-3.40;99.90;;;;;;6101481;23;20546;-80
2022/03/05 06:42:30;;;;;;;16.17;7.65;;;-3.40;99.90;;;;;;6100534;23;20018;-81
2022/03/05 06:44:56;;;;;;;17.88;8.32;;;-3.30;99.90;;;;;;6100436;23;20678;-81
2022/03/05 06:47:22;;;;;;;15.30;8.25;;;-3.20;99.90;;;;;;6100616;23;20054;-81
2022/03/05 06:49:47;;;;;;;17.20;7.72;;;-3.20;99.90;;;;;;6124542;23;20021;-84
2022/03/05 06:52:15;;;;;;;16.60;7.70;;;-3.10;99.90;;;;;;6101287;23;20465;-81
2022/03/05 06:54:41;;;;;;;16.83;8.20;;;-3.10;99.90;;;;;;6100531;23;20021;-79
2022/03/05 06:57:07;;;;;;;18.70;8.50;;;-3.10;99.90;;;;;;6149360;23;20045;-80
2022/03/05 06:59:33;;;;;;;15.50;8.23;;;-3.00;99.90;;;;;;6149240;23;20049;-80
2022/03/05 07:01:59;;;;;;;15.95;8.13;;;-2.70;99.90;;;;;;6150897;23;20069;-80
2022/03/05 07:04:25;;;;;;;16.95;8.38;;;-2.90;99.90;;;;;;6151062;23;20076;-80
2022/03/05 07:06:51;;;;;;;19.85;9.20;;;-2.80;99.90;;;;;;6101906;23;20037;-80
2022/03/05 07:09:17;;;;;;;17.20;8.60;;;-2.70;99.90;;;;;;6151113;23;20018;-83
2022/03/05 07:11:43;;;;;;;18.80;9.55;;;-1.40;99.90;;;;;;6126498;23;20072;-80
2022/03/05 07:14:08;;;;;;;21.77;8.90;;;-2.50;99.90;;;;;;6101771;23;20021;-81
2022/03/05 07:16:35;;;;;;;20.05;10.07;;;-2.40;99.90;;;;;;6101138;23;20021;-80
2022/03/05 07:19:00;;;;;;;20.65;10.50;;;-2.20;99.90;;;;;;6100247;23;20019;-80
2022/03/05 07:21:26;;;;;;;22.65;10.18;;;-2.10;99.90;;;;;;6098873;23;20049;-79
2022/03/05 07:23:52;;;;;;;19.55;9.75;;;-2.00;99.90;;;;;;6053021;23;20109;-79
2022/03/05 07:26:18;;;;;;;20.80;9.23;;;-1.90;99.90;;;;;;6101342;23;20040;-79
2022/03/05 07:28:47;;;;;;;21.23;10.00;;;-1.80;99.90;;;;;;6102290;23;20018;-80
2022/03/05 07:31:13;;;;;;;21.00;10.05;;;-1.70;99.90;;;;;;6077261;23;20052;-80
2022/03/05 07:33:38;;;;;;;22.00;10.25;;;-1.60;99.90;;;;;;6102173;23;20028;-80
2022/03/05 07:36:04;;;;;;;19.20;9.43;;;-1.50;99.90;;;;;;6125313;23;20029;-80
2022/03/05 07:38:34;;;;;;;20.48;10.73;;;-1.40;99.90;;;;;;6101642;23;20050;-80
2022/03/05 07:41:00;;;;;;;21.08;9.48;;;-0.90;99.90;;;;;;6100507;23;20021;-80
2022/03/05 07:43:26;;;;;;;23.85;11.05;;;-1.30;99.90;;;;;;6099334;23;20017;-79
2022/03/05 07:45:51;;;;;;;19.58;9.45;;;-1.20;99.90;;;;;;6076017;23;20049;-80
2022/03/05 07:48:21;;;;;;;22.13;10.32;;;-1.10;99.90;;;;;;6100963;23;20018;-80
2022/03/05 07:50:51;;;;;;;20.70;9.80;;;-1.00;99.90;;;;;;6102907;23;20037;-80
2022/03/05 07:53:17;;;;;;;26.40;10.88;;;-0.90;99.90;;;;;;6125014;23;20021;-80
2022/03/05 07:55:43;;;;;;;17.50;9.20;;;-0.80;99.90;;;;;;6101202;23;20053;-81
2022/03/05 07:58:09;;;;;;;21.70;9.73;;;-0.60;99.90;;;;;;6101039;23;20028;-81
2022/03/05 08:00:35;;;;;;;20.13;10.30;;;-0.10;99.90;;;;;;6100997;23;20021;-80
2022/03/05 08:03:01;;;;;;;19.67;9.70;;;0.60;99.90;;;;;;6101509;23;20049;-80
2022/03/05 08:05:27;;;;;;;17.40;9.35;;;1.30;99.90;;;;;;6150145;23;20017;-81
2022/03/05 08:07:54;;;;;;;16.10;9.45;;;1.90;99.90;;;;;;6101718;23;20024;-79
2022/03/05 08:10:20;;;;;;;18.38;10.25;;;2.00;99.90;;;;;;6125562;23;20025;-80
2022/03/05 08:12:46;;;;;;;21.40;10.25;;;1.90;99.90;;;;;;6123387;23;20028;-79
2022/03/05 08:15:13;;;;;;;17.58;10.13;;;1.70;99.90;;;;;;6074093;23;20112;-79
2022/03/05 08:17:53;;;;;;;18.80;10.38;;;2.10;99.90;;;;;;6125104;23;20017;-79
2022/03/05 08:20:19;;;;;;;17.13;9.15;;;1.80;99.90;;;;;;6124521;23;20084;-80
2022/03/05 08:22:45;;;;;;;22.77;11.40;;;2.10;99.90;;;;;;6099062;23;20036;-79
2022/03/05 08:25:12;;;;;;;17.92;10.05;;;2.40;99.90;;;;;;6100035;23;20100;-80
2022/03/05 08:27:38;;;;;;;23.33;10.93;;;2.60;99.90;;;;;;6124020;23;20024;-82
2022/03/05 08:30:04;;;;;;;20.73;10.40;;;2.80;99.90;;;;;;6099613;23;20265;-80
2022/03/05 08:32:30;;;;;;;19.33;10.68;;;2.80;99.90;;;;;;6099811;23;20014;-80
2022/03/05 08:34:56;;;;;;;19.45;11.23;;;3.00;99.90;;;;;;6100339;23;20049;-80
2022/03/05 08:37:21;;;;;;;22.15;10.93;;;3.30;99.90;;;;;;6123462;23;20085;-80
2022/03/05 08:39:47;;;;;;;19.42;10.07;;;3.60;99.90;;;;;;6077031;23;20453;-80
2022/03/05 08:42:13;;;;;;;20.55;10.35;;;3.30;99.90;;;;;;6075269;23;20026;-81
2022/03/05 08:44:38;;;;;;;20.60;11.25;;;3.30;99.90;;;;;;6076431;23;20397;-79
2022/03/05 08:47:04;;;;;;;20.80;10.52;;;3.20;99.90;;;;;;6099515;23;20459;-80
2022/03/05 08:49:30;;;;;;;26.30;11.52;;;3.40;99.90;;;;;;6124381;23;20023;-79
2022/03/05 08:51:56;;;;;;;18.92;10.93;;;3.60;99.90;;;;;;6124584;23;20049;-80
2022/03/05 08:54:22;;;;;;;22.30;11.50;;;3.70;99.90;;;;;;6076701;23;20021;-80
2022/03/05 08:56:48;;;;;;;21.13;10.40;;;3.80;99.90;;;;;;6124880;23;20066;-80
2022/03/05 08:59:14;;;;;;;20.23;10.77;;;4.00;99.90;;;;;;6100912;23;20021;-80
2022/03/05 09:01:42;;;;;;;23.70;11.93;;;4.50;99.90;;;;;;6123547;23;20040;-80
2022/03/05 09:04:08;;;;;;;21.27;11.77;;;5.00;99.90;;;;;;6101071;23;20021;-79
2022/03/05 09:06:34;;;;;;;21.50;13.15;;;5.70;99.90;;;;;;6100589;23;20044;-80
2022/03/05 09:09:02;;;;;;;19.83;11.70;;;6.40;99.90;;;;;;6150277;23;20045;-80
2022/03/05 09:11:28;;;;;;;18.50;11.57;;;6.60;99.90;;;;;;6101904;23;20017;-80
2022/03/05 09:13:54;;;;;;;22.73;12.45;;;7.30;99.90;;;;;;6101166;23;20352;-80
2022/03/05 09:16:19;;;;;;;20.05;12.23;;;7.90;99.90;;;;;;6100449;23;20014;-80
2022/03/05 09:18:45;;;;;;;21.17;11.75;;;7.90;99.90;;;;;;6100110;23;20361;-80
2022/03/05 09:21:11;;;;;;;22.75;12.32;;;8.10;99.90;;;;;;6123051;23;20044;-80
2022/03/05 09:23:37;;;;;;;18.90;11.88;;;8.50;99.40;;;;;;6123698;23;20029;-79
2022/03/05 09:26:03;;;;;;;26.27;12.57;;;8.60;96.90;;;;;;6051862;23;20013;-80
2022/03/05 09:28:29;;;;;;;20.75;12.30;;;8.40;97.10;;;;;;6100522;23;20028;-80
2022/03/05 09:30:55;;;;;;;18.70;12.32;;;8.00;96.10;;;;;;6075045;23;20022;-80
2022/03/05 09:33:22;;;;;;;23.65;13.88;;;8.10;96.40;;;;;;6072590;23;20100;-80
2022/03/05 09:35:49;;;;;;;21.95;12.70;;;7.90;96.60;;;;;;6094805;23;20025;-80
2022/03/05 09:38:15;;;;;;;23.48;13.30;;;8.20;96.20;;;;;;6096879;23;20796;-80
2022/03/05 09:40:41;;;;;;;18.23;12.00;;;8.40;95.20;;;;;;6098080;23;20018;-80
2022/03/05 09:43:07;;;;;;;22.13;12.60;;;8.70;96.10;;;;;;6125812;23;20017;-80
2022/03/05 09:45:34;;;;;;;19.35;12.13;;;8.90;95.00;;;;;;6097584;23;20025;-80
2022/03/05 09:48:00;;;;;;;21.08;11.98;;;8.20;95.00;;;;;;6124081;23;20349;-80
2022/03/05 09:50:28;;;;;;;22.83;12.77;;;9.00;95.70;;;;;;6123530;23;20077;-80
2022/03/05 09:52:55;;;;;;;20.30;12.68;;;8.60;93.30;;;;;;6074868;23;20018;-80
2022/03/05 09:55:21;;;;;;;20.10;12.43;;;8.40;93.80;;;;;;6077741;23;20040;-80
2022/03/05 09:57:47;;;;;;;21.38;13.05;;;8.80;93.30;;;;;;6100980;23;20546;-80
2022/03/05 10:00:13;;;;;;;21.58;12.52;;;8.90;94.30;;;;;;6099404;23;20110;-81
2022/03/05 10:02:40;;;;;;;21.80;13.20;;;9.40;93.70;;;;;;6100640;23;20044;-80
2022/03/05 10:05:12;;;;;;;22.02;12.68;;;9.30;92.90;;;;;;6100686;23;20040;-80
2022/03/05 10:07:38;;;;;;;20.67;12.77;;;10.10;92.40;;;;;;6100085;23;20408;-79
2022/03/05 10:10:09;;;;;;;20.52;12.75;;;10.00;92.00;;;;;;6125024;23;20537;-79
2022/03/05 10:12:35;;;;;;;20.98;12.25;;;10.00;90.70;;;;;;6124561;23;20009;-79
2022/03/05 10:15:07;;;;;;;28.58;14.13;;;9.90;91.10;;;;;;6076947;23;20013;-79
2022/03/05 10:17:49;;;;;;;26.00;13.48;;;9.40;91.10;;;;;;6101010;23;20006;-79
2022/03/05 10:20:15;;;;;;;20.60;13.43;;;9.90;91.40;;;;;;6100979;23;20021;-79
2022/03/05 10:22:59;;;;;;;20.33;13.02;;;9.80;90.00;;;;;;6100506;23;20017;-79
2022/03/05 10:25:54;;;;;;;24.23;13.02;;;10.10;90.30;;;;;;6100058;23;20036;-78
2022/03/05 10:28:28;;;;;;;22.52;13.00;;;10.20;90.00;;;;;;6098706;23;20010;-78
2022/03/05 10:31:09;;;;;;;21.80;13.00;;;10.30;88.90;;;;;;6098894;23;20073;-79
2022/03/05 10:33:45;;;;;;;21.90;13.55;;;10.50;87.80;;;;;;6100203;23;20078;-78
2022/03/05 10:36:22;;;;;;;20.88;13.23;;;10.80;87.00;;;;;;6098963;23;20025;-79
2022/03/05 10:38:55;;;;;;;23.02;13.63;;;11.30;86.30;;;;;;6102431;23;20104;-79
2022/03/05 10:41:35;;;;;;;20.55;12.75;;;11.40;85.20;;;;;;6126323;23;20065;-79
2022/03/05 10:44:06;;;;;;;24.73;13.60;;;11.50;85.70;;;;;;6127313;23;20036;-79
2022/03/05 10:46:44;;;;;;;23.47;12.97;;;11.60;86.00;;;;;;6125132;23;20013;-80
2022/03/05 10:49:16;;;;;;;23.73;13.45;;;11.40;83.30;;;;;;6126301;23;20277;-79
2022/03/05 10:51:48;;;;;;;22.35;13.32;;;10.70;84.10;;;;;;6126143;23;20021;-79
2022/03/05 10:54:45;;;;;;;20.45;13.15;;;10.70;84.20;;;;;;6102727;23;20049;-79
2022/03/05 10:57:19;;;;;;;22.88;13.18;;;11.00;83.30;;;;;;6126064;23;20068;-79
2022/03/05 10:59:47;;;;;;;22.67;12.90;;;11.30;83.80;;;;;;6126392;23;20349;-79
2022/03/05 11:02:18;;;;;;;22.10;13.48;;;11.80;82.90;;;;;;6102420;23;20022;-79
2022/03/05 11:04:45;;;;;;;23.52;13.65;;;11.50;83.00;;;;;;6126923;23;20045;-79
2022/03/05 11:07:19;;;;;;;20.95;12.65;;;10.80;82.90;;;;;;6101662;23;20013;-81
2022/03/05 11:09:47;;;;;;;24.77;14.13;;;10.50;83.80;;;;;;6101858;23;20097;-81
2022/03/05 11:12:16;;;;;;;25.75;13.75;;;10.10;85.10;;;;;;6101393;23;20349;-81
2022/03/05 11:14:49;;;;;;;20.92;13.40;;;10.10;83.50;;;;;;6101797;23;20096;-82
2022/03/05 11:17:15;;;;;;;23.17;13.35;;;10.20;83.90;;;;;;6101380;23;20465;-82
2022/03/05 11:19:41;;;;;;;26.02;13.55;;;10.30;85.20;;;;;;6100702;23;20657;-81
2022/03/05 11:22:08;;;;;;;23.00;13.38;;;10.20;84.20;;;;;;6079251;23;20017;-81
2022/03/05 11:24:37;;;;;;;24.65;13.55;;;10.40;85.20;;;;;;6058683;23;20014;-82
2022/03/05 11:27:04;;;;;;;24.13;13.60;;;10.40;85.30;;;;;;6078730;23;20021;-82
2022/03/05 11:30:04;;;;;;;25.58;14.20;;;10.70;85.20;;;;;;6054923;23;20340;-82
2022/03/05 11:32:32;;;;;;;25.23;14.13;;;10.50;83.80;;;;;;6101793;23;20017;-83
2022/03/05 11:34:58;;;;;;;22.35;12.93;;;10.50;84.20;;;;;;6101748;23;20474;-82
2022/03/05 11:37:35;;;;;;;26.08;14.25;;;10.50;83.90;;;;;;6101431;23;20104;-83
2022/03/05 11:40:04;;;;;;;24.40;13.73;;;9.80;84.80;;;;;;6126487;23;20485;-84
2022/03/05 11:42:33;;;;;;;24.40;13.85;;;9.60;86.50;;;;;;6125960;23;20017;-83
2022/03/05 11:45:01;;;;;;;22.70;12.88;;;9.60;87.50;;;;;;6125536;23;20064;-83
2022/03/05 11:47:30;;;;;;;21.02;12.88;;;9.30;88.50;;;;;;6100499;23;20018;-83
2022/03/05 11:49:56;;;;;;;22.73;13.75;;;9.40;88.50;;;;;;6100766;23;20484;-82
2022/03/05 11:52:23;;;;;;;32.03;15.20;;;9.30;88.60;;;;;;6100799;23;20048;-81
2022/03/05 11:55:14;;;;;;;24.52;13.55;;;9.10;88.10;;;;;;6103509;23;20017;-82
2022/03/05 11:57:43;;;;;;;29.70;22.10;;;8.90;88.90;;;;;;6101029;23;20449;-84
2022/03/05 12:00:10;;;;;;;30.40;16.52;;;9.00;89.30;;;;;;6101018;23;20022;-83
2022/03/05 12:02:51;;;;;;;24.13;14.07;;;9.00;89.80;;;;;;6126027;23;20020;-83
2022/03/05 12:05:35;;;;;;;26.05;14.48;;;8.90;88.80;;;;;;6100999;23;20024;-82
2022/03/05 12:08:02;;;;;;;25.77;14.80;;;8.80;88.50;;;;;;6101129;23;20100;-82
2022/03/05 12:10:28;;;;;;;21.65;13.45;;;8.70;89.90;;;;;;6100272;23;20021;-82
2022/03/05 12:12:58;;;;;;;25.27;13.95;;;8.70;88.80;;;;;;6076809;23;20014;-82
2022/03/05 12:15:27;;;;;;;23.75;12.55;;;8.70;90.00;;;;;;6100071;23;20541;-83
2022/03/05 12:17:54;;;;;;;26.25;14.52;;;8.80;89.20;;;;;;6101021;23;20017;-83
2022/03/05 12:20:25;;;;;;;28.15;14.63;;;8.80;89.20;;;;;;6125026;23;20017;-80
2022/03/05 12:23:04;;;;;;;27.33;15.35;;;8.90;87.40;;;;;;6124286;23;20009;-80
2022/03/05 12:25:34;;;;;;;26.73;14.75;;;8.80;87.70;;;;;;6124790;23;20364;-80
2022/03/05 12:28:02;;;;;;;29.60;15.02;;;8.80;89.60;;;;;;6125209;23;20020;-80
2022/03/05 12:30:35;;;;;;;29.25;15.75;;;8.90;88.20;;;;;;6149366;23;20025;-80
2022/03/05 12:33:03;;;;;;;29.38;14.88;;;8.80;88.90;;;;;;6099754;23;20021;-80
2022/03/05 12:35:29;;;;;;;26.55;14.65;;;9.00;89.00;;;;;;6096722;23;20108;-80